METAR Data
IDs: Format: Raw Decoded Include TAF

Data at: 1629 UTC 19 Sep 2018

KBIV 191553Z AUTO 12009KT 10SM OVC006 18/16 A3007 RMK AO2 SLP181 T01830161
KBIV 191530Z AUTO 11008KT 10SM OVC005 18/16 A3008 RMK AO2 T01780161
KBIV 191453Z AUTO 11008KT 10SM OVC004 17/16 A3006 RMK AO2 SLP178 T01720156 50006
KBIV 191353Z AUTO 09005KT 5SM BR OVC002 17/16 A3006 RMK AO2 SLP179 T01670156
KBIV 191346Z AUTO 09005KT 4SM BR OVC002 16/15 A3007 RMK AO2 T01610150
KBIV 191329Z AUTO 09005KT 2 1/2SM BR OVC002 16/15 A3006 RMK AO2 T01610150
KBIV 191322Z AUTO 07006KT 1 3/4SM BR OVC002 16/14 A3006 RMK AO2 T01560144
KBIV 191305Z AUTO 08006KT 1 1/4SM BR OVC002 15/14 A3006 RMK AO2 T01500144
KBIV 191253Z AUTO 09005KT 2 1/2SM BR OVC004 15/14 A3006 RMK AO2 SLP179 T01500139
KBIV 191232Z AUTO 08004KT 10SM OVC004 15/13 A3006 RMK AO2 T01500133
KBIV 191153Z AUTO 04003KT 10SM BKN005 14/13 A3005 RMK AO2 CIG 004V008 SLP173 T01440133 10172 20139 53005
KBIV 191144Z AUTO 03004KT 10SM SCT005 14/13 A3005 RMK AO2 T01440133
KBIV 191053Z AUTO 10004KT 10SM CLR 14/13 A3003 RMK AO2 SLP167 T01390128
KBIV 190953Z AUTO 07003KT 10SM CLR 14/13 A3003 RMK AO2 SLP168 T01440133
KBIV 190905Z AUTO 03005KT 10SM FEW006 15/13 A3003 RMK AO2 T01500133
KBIV 190853Z AUTO 03004KT 10SM CLR 15/13 A3003 RMK AO2 SLP167 T01500133 53008
KBIV 190753Z AUTO 02006KT 10SM CLR 16/14 A3002 RMK AO2 SLP163 T01560139
KBIV 190653Z AUTO VRB03KT 10SM CLR 17/14 A3001 RMK AO2 SLP159 T01670139
KBIV 190553Z AUTO 00000KT 10SM CLR 17/15 A3000 RMK AO2 SLP157 T01720150 10200 20172 50003
KBIV 190453Z AUTO 34004KT 10SM CLR 18/16 A3001 RMK AO2 SLP158 T01830156 402500167
KBIV 190353Z AUTO 01005KT 10SM CLR 19/16 A2999 RMK AO2 SLP153 T01890156
KBIV 190253Z AUTO 33003KT 10SM CLR 19/16 A2999 RMK AO2 SLP153 T01890161 53014
KBIV 190153Z AUTO 33005KT 10SM CLR 19/16 A2997 RMK AO2 SLP147 T01890161
KBIV 190053Z AUTO 00000KT 10SM CLR 18/17 A2994 RMK AO2 SLP137 T01830167
KBIV 182353Z AUTO 33003KT 10SM OVC110 19/17 A2995 RMK AO2 SLP140 T01940167 10239 20194 58001
KBIV 182253Z AUTO 30005KT 10SM BKN100 BKN120 21/16 A2996 RMK AO2 PRESRR SLP141 T02060161
KBIV 182153Z AUTO 29005KT 10SM BKN110 21/17 A2996 RMK AO2 SLP143 T02110167
KBIV 182053Z AUTO 33005KT 10SM CLR 22/17 A2995 RMK AO2 SLP140 T02170167 58005
KBIV 181953Z AUTO 29007KT 10SM CLR 22/17 A2997 RMK AO2 SLP147 T02170167
KBIV 181853Z AUTO 30010KT 10SM CLR 22/17 A2998 RMK AO2 SLP149 T02220172
KBIV 181753Z AUTO 28007G15KT 10SM CLR 23/19 A2997 RMK AO2 LTG DSNT E SLP145 T02280189 10250 20189 53007
KBIV 181712Z AUTO 31008KT 10SM BKN080 BKN095 23/19 A2996 RMK AO2 LTG DSNT NE T02330189
KBIV 181653Z AUTO 26008KT 10SM VCTS SCT075 BKN090 23/19 A2996 RMK AO2 SLP143 T02330189
KBIV 181553Z AUTO 16003KT 10SM CLR 24/19 A2995 RMK AO2 SLP137 T02390194
KBIV 181453Z AUTO VRB05KT 10SM SCT012 24/21 A2995 RMK AO2 SLP138 T02390206 53000
KBIV 181353Z AUTO 00000KT 5SM BR CLR 22/19 A2994 RMK AO2 SLP134 T02170194
KBIV 181253Z AUTO 12004KT 4SM BR CLR 20/18 A2993 RMK AO2 SLP131 T02000183
KBIV 181216Z AUTO 11004KT 3SM BR SCT003 19/18 A2994 RMK AO2 T01890178
KBIV 181201Z AUTO 08004KT 3SM BR BKN003 20/18 A2994 RMK AO2 T02000183
KBIV 181153Z AUTO 00000KT 2 1/2SM BR OVC003 20/18 A2995 RMK AO2 SLP137 T02000183 10211 20167 53010
KBIV 181131Z AUTO 00000KT 5SM BR BKN003 20/19 A2995 RMK AO2 T02000189
KBIV 181106Z AUTO 34003KT 4SM BR FEW005 19/18 A2994 RMK AO2 T01940183 $
KBIV 181053Z AUTO 00000KT 4SM BR CLR 18/17 A2993 RMK AO2 SLP131 T01830172 $
KBIV 181048Z AUTO 19003KT 4SM BR CLR 18/17 A2992 RMK AO2 $
KBIV 181041Z AUTO 11003KT 2 1/2SM BR CLR 18/17 A2992 RMK AO2 T01780172 $
KBIV 181024Z AUTO 00000KT 4SM BR CLR 18/17 A2992 RMK AO2 T01830172 $
KBIV 181003Z AUTO 00000KT 2 1/2SM BR CLR 18/17 A2992 RMK AO2 T01780172 $
KBIV 180953Z AUTO 00000KT 1 1/4SM BR CLR 18/17 A2992 RMK AO2 VIS 1/2V2 1/2 SLP127 T01780167 $
KBIV 180948Z AUTO 17003KT 1 3/4SM BR CLR 18/17 A2992 RMK AO2 $
KBIV 180945Z AUTO 00000KT 3SM BR CLR 18/17 A2992 RMK AO2 T01830172 $
KBIV 180938Z AUTO 00000KT 2 1/2SM BR CLR 17/16 A2992 RMK AO2 T01720161 $
KBIV 180853Z AUTO 00000KT 4SM BR CLR 17/16 A2991 RMK AO2 SLP126 T01670161 55008 $
KBIV 180753Z AUTO 00000KT 7SM CLR 18/17 A2990 RMK AO2 SLP122 T01780167 $
KBIV 180653Z AUTO 19003KT 10SM CLR 19/17 A2991 RMK AO2 SLP125 T01890172 $
KBIV 180553Z AUTO 28006KT 10SM SCT065 BKN080 21/18 A2994 RMK AO2 SLP133 T02110178 10233 20178 53006 $
KBIV 180453Z AUTO 00000KT 7SM CLR 18/17 A2992 RMK AO2 SLP126 T01830172 403000167 $